This is the latest recevied weather packets stored in our database for station/object VK1KCM-5. If no packets are shown the sender has not sent any weather packets the latest 10 day(s).
| Time | Temp. | Humidity | Pressure | Rain* | Wind** | Luminosity | Snow |
|---|---|---|---|---|---|---|---|
| 1787546528 | 17.78° C | 58% | 1017.8 hPa | 0 mm | - | - | - |
| 1787546283 | 17.78° C | 60% | 1017.7 hPa | 0 mm | - | - | - |
| 1787546033 | 18.89° C | 58% | 1017.5 hPa | 0 mm | - | - | - |
| 1787545788 | 18.33° C | 58% | 1017.5 hPa | 0 mm | - | - | - |
| 1787545543 | 18.33° C | 58% | 1017.5 hPa | 0 mm | - | - | - |
| 1787545246 | 18.89° C | 57% | 1017.6 hPa | 0 mm | - | - | - |
| 1787544985 | 17.78° C | 61% | 1017.6 hPa | 0 mm | - | - | - |
| 1787544733 | 17.78° C | 63% | 1017.7 hPa | 0 mm | - | - | - |
| 1787544453 | 17.78° C | 64% | 1017.7 hPa | 0 mm | - | - | - |
| 1787544183 | 17.78° C | 64% | 1017.8 hPa | 0 mm | - | - | - |
| 1787543928 | 17.78° C | 65% | 1017.9 hPa | 0 mm | - | - | - |
| 1787543633 | 17.78° C | 65% | 1018 hPa | 0 mm | - | - | - |
| 1787543338 | 18.33° C | 62% | 1017.6 hPa | 0 mm | - | - | - |
| 1787543058 | 18.33° C | 63% | 1017.9 hPa | 0 mm | - | - | - |
| 1787542808 | 17.78° C | 63% | 1018.1 hPa | 0 mm | - | - | - |
| 1787542558 | 17.78° C | 63% | 1018.1 hPa | 0 mm | - | - | - |
| 1787542268 | 17.78° C | 63% | 1018.1 hPa | 0 mm | - | - | - |
| 1787541983 | 17.78° C | 65% | 1018.3 hPa | 0 mm | - | - | - |
| 1787541738 | 17.78° C | 65% | 1018.1 hPa | 0 mm | - | - | - |
| 1787541448 | 18.33° C | 63% | 1018.2 hPa | 0 mm | - | - | - |
| 1787541178 | 18.33° C | 62% | 1018.2 hPa | 0 mm | - | - | - |
| 1787540878 | 18.33° C | 62% | 1018.2 hPa | 0 mm | - | - | - |
| 1787540613 | 19.44° C | 60% | 1018.1 hPa | 0 mm | - | - | - |
| 1787540323 | 18.33° C | 60% | 1018.5 hPa | 0 mm | - | - | - |
| 1787540068 | 18.89° C | 61% | 1018.4 hPa | 0 mm | - | - | - |
* Rain latest hour (hover to see other rain measurements)
** Current wind speed in m/s (hover to see current wind gust speed)